Terminal Aerodrome Forecast
Issued by NWS

Home | Current Version | Previous Version | Text Only | Print | Product List | Glossary Off
Versions: 1 2 3 4 5 6 7 8 9 10 11 12 13 14 15 16 17 18 19 20 21

000
FTUS42 KMHX 231312 AAA
TAFOAJ
TAF AMD
KOAJ 231312Z 2313/2412 18008KT P6SM VCSH OVC008
     FM231500 20010G15KT P6SM VCSH SCT008 OVC020
     FM231900 20010G15KT 5SM SHRA SCT008 OVC025
     FM240600 21005KT P6SM VCSH OVC007
      AMD LTD TO CLD VIS AND WIND=

USA.gov is the U.S. government's official web portal to all federal, state and local government web resources and services.